Time;durP1;ratioP1;P1;durP2;ratioP2;P2;SDS_P1;SDS_P2;PMS_P1;PMS_P2;Temp;Humidity;BMP_temperature;BMP_pressure;BME280_temperature;BME280_humidity;BME280_pressure;Samples;Min_cycle;Max_cycle;Signal;HPM_P1;HPM_P2
2022/10/18 00:02:14;;;;;;;38.13;9.70;;;;;;;;;;5062714;28;20032;-69
2022/10/18 00:04:40;;;;;;;34.55;8.95;;;;;;;;;;5057572;28;20453;-67
2022/10/18 00:07:06;;;;;;;35.33;8.93;;;;;;;;;;5071103;28;20031;-68
2022/10/18 00:09:33;;;;;;;41.28;9.18;;;;;;;;;;5063157;28;20136;-69
2022/10/18 00:11:59;;;;;;;32.53;8.88;;;;;;;;;;5063298;28;20032;-68
2022/10/18 00:14:25;;;;;;;37.42;9.57;;;;;;;;;;5064914;28;20024;-68
2022/10/18 00:16:52;;;;;;;34.65;8.88;;;;;;;;;;5060411;28;21098;-67
2022/10/18 00:19:18;;;;;;;35.22;8.88;;;;;;;;;;5064600;28;20036;-68
2022/10/18 00:21:44;;;;;;;33.50;8.57;;;;;;;;;;5057678;28;20053;-68
2022/10/18 00:24:10;;;;;;;;;;;;;;;;;;5063088;28;20296;-68
2022/10/18 00:26:36;;;;;;;44.03;8.98;;;;;;;;;;5055092;28;19919;-68
2022/10/18 00:29:04;;;;;;;40.03;8.93;;;;;;;;;;5059905;28;20052;-68
2022/10/18 00:31:35;;;;;;;31.08;8.30;;;;;;;;;;5063341;28;20029;-69
2022/10/18 00:34:02;;;;;;;37.17;8.88;;;;;;;;;;5061679;28;20518;-68
2022/10/18 00:36:30;;;;;;;39.22;8.77;;;;;;;;;;5059813;28;20116;-68
2022/10/18 00:38:56;;;;;;;33.85;8.70;;;;;;;;;;5059049;28;20036;-67
2022/10/18 00:41:24;;;;;;;33.45;8.15;;;;;;;;;;5057729;28;20164;-70
2022/10/18 00:43:53;;;;;;;32.67;8.65;;;;;;;;;;5056205;28;20023;-67
2022/10/18 00:46:19;;;;;;;34.65;9.23;;;;;;;;;;5062807;28;20020;-68
2022/10/18 00:48:45;;;;;;;35.70;9.20;;;;;;;;;;5054271;28;20032;-68
2022/10/18 00:51:12;;;;;;;38.03;9.00;;;;;;;;;;5063488;28;20522;-67
2022/10/18 00:53:38;;;;;;;35.08;9.18;;;;;;;;;;5058028;28;20071;-67
2022/10/18 00:56:04;;;;;;;39.83;9.38;;;;;;;;;;5055062;28;20418;-68
2022/10/18 00:58:30;;;;;;;30.95;8.35;;;;;;;;;;5062017;28;20453;-68
2022/10/18 01:00:57;;;;;;;34.78;8.35;;;;;;;;;;5065434;28;20786;-68
2022/10/18 01:03:22;;;;;;;;;;;;;;;;;;5062143;28;20032;-68
2022/10/18 01:05:49;;;;;;;29.88;8.30;;;;;;;;;;5064027;28;19911;-68
2022/10/18 01:08:30;;;;;;;33.35;9.90;;;;;;;;;;5069359;28;20028;-68
2022/10/18 01:10:59;;;;;;;27.98;8.68;;;;;;;;;;5061833;28;20024;-68
2022/10/18 01:13:32;;;;;;;36.05;9.10;;;;;;;;;;5062166;28;20502;-68
2022/10/18 01:16:01;;;;;;;36.20;9.35;;;;;;;;;;5065613;28;20482;-68
2022/10/18 01:18:43;;;;;;;36.20;9.50;;;;;;;;;;5063251;28;20050;-68
2022/10/18 01:21:13;;;;;;;32.45;8.70;;;;;;;;;;5062898;28;20249;-68
2022/10/18 01:23:42;;;;;;;33.92;8.35;;;;;;;;;;5061704;28;20028;-68
2022/10/18 01:26:17;;;;;;;36.90;9.32;;;;;;;;;;5060169;28;20025;-69
2022/10/18 01:28:49;;;;;;;41.72;8.73;;;;;;;;;;5064053;28;20031;-69
2022/10/18 01:31:25;;;;;;;34.63;9.02;;;;;;;;;;5065277;28;20043;-68
2022/10/18 01:33:53;;;;;;;27.20;8.25;;;;;;;;;;5056259;28;21164;-68
2022/10/18 01:36:27;;;;;;;37.92;9.00;;;;;;;;;;5061127;28;20652;-68
2022/10/18 01:38:54;;;;;;;37.58;9.25;;;;;;;;;;5063347;28;20081;-69
2022/10/18 01:41:22;;;;;;;36.40;8.77;;;;;;;;;;5055858;28;20055;-68
2022/10/18 01:43:50;;;;;;;33.33;7.80;;;;;;;;;;5055585;28;20020;-68
2022/10/18 01:46:19;;;;;;;32.70;8.48;;;;;;;;;;5062465;28;20035;-66
2022/10/18 01:48:46;;;;;;;39.92;9.02;;;;;;;;;;5055947;28;20029;-70
2022/10/18 01:51:12;;;;;;;29.60;7.60;;;;;;;;;;5061926;28;20036;-68
2022/10/18 01:53:38;;;;;;;34.33;8.98;;;;;;;;;;5055645;28;20040;-68
2022/10/18 01:56:19;;;;;;;28.38;8.40;;;;;;;;;;5066587;28;20229;-69
2022/10/18 01:58:55;;;;;;;32.08;9.00;;;;;;;;;;5063310;28;20024;-68
2022/10/18 02:01:41;;;;;;;34.83;9.30;;;;;;;;;;5063679;28;20032;-67
2022/10/18 02:04:15;;;;;;;30.38;8.88;;;;;;;;;;5057921;28;20035;-68
2022/10/18 02:06:44;;;;;;;32.17;8.65;;;;;;;;;;5066539;28;20078;-69
2022/10/18 02:09:13;;;;;;;33.65;9.68;;;;;;;;;;5067417;28;20024;-68
2022/10/18 02:11:40;;;;;;;35.10;8.98;;;;;;;;;;5062019;28;20776;-68
2022/10/18 02:14:08;;;;;;;24.73;8.48;;;;;;;;;;5056581;28;20024;-68
2022/10/18 02:16:42;;;;;;;32.03;9.20;;;;;;;;;;5056739;28;20055;-68
2022/10/18 02:19:25;;;;;;;29.95;9.43;;;;;;;;;;5064953;28;20028;-68
2022/10/18 02:21:52;;;;;;;29.13;8.65;;;;;;;;;;5056494;28;21766;-68
2022/10/18 02:24:19;;;;;;;34.45;9.10;;;;;;;;;;5062426;28;20153;-68
2022/10/18 02:26:45;;;;;;;38.08;9.57;;;;;;;;;;5049589;28;20444;-68
2022/10/18 02:29:11;;;;;;;37.20;9.45;;;;;;;;;;5058568;28;20036;-68
2022/10/18 02:31:41;;;;;;;38.42;9.85;;;;;;;;;;5055642;28;20549;-68
2022/10/18 02:34:26;;;;;;;40.15;9.88;;;;;;;;;;5062610;28;20047;-68
2022/10/18 02:36:52;;;;;;;28.55;8.55;;;;;;;;;;5053982;28;20036;-68
2022/10/18 02:39:18;;;;;;;;;;;;;;;;;;5064310;28;20547;-68
2022/10/18 02:41:45;;;;;;;34.75;9.75;;;;;;;;;;5062021;28;20026;-68
2022/10/18 02:44:11;;;;;;;31.15;8.73;;;;;;;;;;5060885;28;20028;-67
2022/10/18 02:46:37;;;;;;;;;;;;;;;;;;5058344;28;20361;-68
2022/10/18 02:49:03;;;;;;;36.15;9.13;;;;;;;;;;5060453;28;20282;-68
2022/10/18 02:51:29;;;;;;;;;;;;;;;;;;5072507;28;20023;-68
2022/10/18 02:53:55;;;;;;;31.75;9.13;;;;;;;;;;5062056;28;19912;-67
2022/10/18 02:56:21;;;;;;;;;;;;;;;;;;5066962;28;20039;-68
2022/10/18 02:58:47;;;;;;;30.70;9.23;;;;;;;;;;5060082;28;20354;-69
2022/10/18 03:01:13;;;;;;;36.90;8.90;;;;;;;;;;5067611;28;20753;-67
2022/10/18 03:03:39;;;;;;;;;;;;;;;;;;5060277;28;20035;-67
2022/10/18 03:06:05;;;;;;;36.50;8.70;;;;;;;;;;5065529;28;19912;-67
2022/10/18 03:08:31;;;;;;;35.20;8.93;;;;;;;;;;5057268;28;20036;-68
2022/10/18 03:10:57;;;;;;;;;;;;;;;;;;5060331;28;20538;-68
2022/10/18 03:13:23;;;;;;;35.20;9.20;;;;;;;;;;5062882;28;20748;-68
2022/10/18 03:15:49;;;;;;;32.00;8.93;;;;;;;;;;5063844;27;20044;-67
2022/10/18 03:18:15;;;;;;;;;;;;;;;;;;5064743;28;20059;-67
2022/10/18 03:20:41;;;;;;;34.85;9.38;;;;;;;;;;5063880;28;20018;-67
2022/10/18 03:23:07;;;;;;;;;;;;;;;;;;5063905;28;20028;-69
2022/10/18 03:25:33;;;;;;;33.92;9.18;;;;;;;;;;5060034;28;19912;-69
2022/10/18 03:28:00;;;;;;;37.83;9.38;;;;;;;;;;5065049;28;20013;-68
2022/10/18 03:30:26;;;;;;;39.50;8.73;;;;;;;;;;5066062;28;20097;-67
2022/10/18 03:32:53;;;;;;;37.70;8.93;;;;;;;;;;5057676;28;20196;-68
2022/10/18 03:35:19;;;;;;;32.83;8.13;;;;;;;;;;5063956;28;20040;-67
2022/10/18 03:37:45;;;;;;;35.60;8.77;;;;;;;;;;5055342;28;20039;-68
2022/10/18 03:40:12;;;;;;;32.22;9.15;;;;;;;;;;5060061;28;20633;-67
2022/10/18 03:42:37;;;;;;;;;;;;;;;;;;5056030;28;20032;-67
2022/10/18 03:45:04;;;;;;;33.33;8.50;;;;;;;;;;5058758;28;19994;-69
2022/10/18 03:47:30;;;;;;;30.65;7.38;;;;;;;;;;5066033;28;20469;-67
2022/10/18 03:49:56;;;;;;;31.08;8.07;;;;;;;;;;5060005;28;20137;-69
2022/10/18 03:52:22;;;;;;;;;;;;;;;;;;5064486;28;20028;-68
2022/10/18 03:54:48;;;;;;;39.70;8.70;;;;;;;;;;5059808;28;19954;-67
2022/10/18 03:57:14;;;;;;;;;;;;;;;;;;5067360;28;20062;-68
2022/10/18 03:59:40;;;;;;;29.55;7.70;;;;;;;;;;5064004;28;20346;-68
2022/10/18 04:02:06;;;;;;;;;;;;;;;;;;5069127;28;20024;-68
2022/10/18 04:04:32;;;;;;;33.97;9.68;;;;;;;;;;5070355;28;19918;-68
2022/10/18 04:06:58;;;;;;;;;;;;;;;;;;5065183;28;20370;-67
2022/10/18 04:09:24;;;;;;;32.00;9.02;;;;;;;;;;5063221;28;19915;-68
2022/10/18 04:11:50;;;;;;;;;;;;;;;;;;5052576;28;20566;-68
2022/10/18 04:14:16;;;;;;;35.58;9.43;;;;;;;;;;5060364;28;19920;-68
2022/10/18 04:16:42;;;;;;;33.63;8.98;;;;;;;;;;5057461;28;21091;-68
2022/10/18 04:19:08;;;;;;;;;;;;;;;;;;5063727;28;20358;-67
2022/10/18 04:21:34;;;;;;;31.90;8.43;;;;;;;;;;5057437;28;19912;-67
2022/10/18 04:24:00;;;;;;;;;;;;;;;;;;5058032;28;20451;-68
2022/10/18 04:26:26;;;;;;;38.60;8.90;;;;;;;;;;5064218;28;19915;-67
2022/10/18 04:28:52;;;;;;;;;;;;;;;;;;5060251;28;20112;-68
2022/10/18 04:31:18;;;;;;;28.88;8.88;;;;;;;;;;5063940;28;19908;-67
2022/10/18 04:33:44;;;;;;;;;;;;;;;;;;5065538;28;20408;-67
2022/10/18 04:36:10;;;;;;;33.67;8.75;;;;;;;;;;5065741;28;19911;-67
2022/10/18 04:38:36;;;;;;;;;;;;;;;;;;5060453;28;20038;-67
2022/10/18 04:41:02;;;;;;;28.45;7.70;;;;;;;;;;5061802;28;19912;-68
2022/10/18 04:43:29;;;;;;;34.78;9.02;;;;;;;;;;5059989;28;20102;-67
2022/10/18 04:45:55;;;;;;;31.52;8.90;;;;;;;;;;5062306;28;20138;-67
2022/10/18 04:48:21;;;;;;;28.75;7.85;;;;;;;;;;5057426;28;20035;-69
2022/10/18 04:50:47;;;;;;;;;;;;;;;;;;5060057;28;20387;-68
2022/10/18 04:53:13;;;;;;;29.13;8.43;;;;;;;;;;5063365;28;19973;-68
2022/10/18 04:55:39;;;;;;;;;;;;;;;;;;5063709;28;20025;-68
2022/10/18 04:58:05;;;;;;;36.30;9.68;;;;;;;;;;5065460;28;19916;-68
2022/10/18 05:00:31;;;;;;;;;;;;;;;;;;5062659;28;20028;-68
2022/10/18 05:02:57;;;;;;;31.58;9.10;;;;;;;;;;5067800;28;19912;-68
2022/10/18 05:05:23;;;;;;;30.15;8.10;;;;;;;;;;5064825;28;20353;-68
2022/10/18 05:07:49;;;;;;;;;;;;;;;;;;5061925;28;20406;-68
2022/10/18 05:10:15;;;;;;;33.97;8.32;;;;;;;;;;5065277;28;19923;-68
2022/10/18 05:12:42;;;;;;;31.00;8.00;;;;;;;;;;5060538;28;20039;-69
2022/10/18 05:15:09;;;;;;;27.45;7.88;;;;;;;;;;5061392;28;20428;-69
2022/10/18 05:17:35;;;;;;;35.03;7.55;;;;;;;;;;5065960;28;20044;-68
2022/10/18 05:20:01;;;;;;;31.48;8.27;;;;;;;;;;5070339;28;20948;-68
2022/10/18 05:22:27;;;;;;;31.25;7.68;;;;;;;;;;5060370;28;20163;-69
2022/10/18 05:24:53;;;;;;;;;;;;;;;;;;5053418;28;20244;-69
2022/10/18 05:27:19;;;;;;;32.63;8.15;;;;;;;;;;5063405;28;19912;-69
2022/10/18 05:29:46;;;;;;;29.02;7.32;;;;;;;;;;5059128;28;20513;-68
2022/10/18 05:32:11;;;;;;;;;;;;;;;;;;5067498;28;20063;-67
2022/10/18 05:34:37;;;;;;;29.45;7.75;;;;;;;;;;5062103;28;20050;-68
2022/10/18 05:37:04;;;;;;;36.03;8.50;;;;;;;;;;5062515;28;20028;-67
2022/10/18 05:39:30;;;;;;;28.50;8.18;;;;;;;;;;5059800;28;20025;-69
2022/10/18 05:41:57;;;;;;;26.85;7.82;;;;;;;;;;5056078;28;20527;-69
2022/10/18 05:44:23;;;;;;;25.08;8.05;;;;;;;;;;5064484;28;20043;-69
2022/10/18 05:46:49;;;;;;;29.70;7.82;;;;;;;;;;5056302;28;20090;-69
2022/10/18 05:49:15;;;;;;;33.45;8.70;;;;;;;;;;5060477;28;20028;-68
2022/10/18 05:51:41;;;;;;;34.20;8.52;;;;;;;;;;5059232;28;20032;-69
2022/10/18 05:54:07;;;;;;;24.85;7.60;;;;;;;;;;5065748;28;20039;-68
2022/10/18 05:56:33;;;;;;;29.00;8.35;;;;;;;;;;5057865;28;20028;-68
2022/10/18 05:58:59;;;;;;;30.20;7.63;;;;;;;;;;5065730;28;20024;-68
2022/10/18 06:01:25;;;;;;;28.50;7.45;;;;;;;;;;5066586;28;20038;-68
2022/10/18 06:03:54;;;;;;;;;;;;;;;;;;5058267;28;20101;-68
2022/10/18 06:06:21;;;;;;;36.38;8.73;;;;;;;;;;5066025;28;20317;-68
2022/10/18 06:08:49;;;;;;;30.25;8.45;;;;;;;;;;5057250;28;20205;-68
2022/10/18 06:11:17;;;;;;;35.53;8.68;;;;;;;;;;5060345;28;20023;-68
2022/10/18 06:13:44;;;;;;;33.80;8.77;;;;;;;;;;5059939;28;20035;-68
2022/10/18 06:16:11;;;;;;;32.90;8.73;;;;;;;;;;5060903;28;20037;-68
2022/10/18 06:18:37;;;;;;;40.03;8.05;;;;;;;;;;5060281;28;20039;-67
2022/10/18 06:21:03;;;;;;;32.30;7.97;;;;;;;;;;5061362;28;20450;-67
2022/10/18 06:23:29;;;;;;;26.00;7.15;;;;;;;;;;5062391;28;20278;-69
2022/10/18 06:26:03;;;;;;;31.23;8.00;;;;;;;;;;5048574;28;20033;-68
2022/10/18 06:28:29;;;;;;;34.85;8.80;;;;;;;;;;5063555;28;20035;-68
2022/10/18 06:30:58;;;;;;;32.25;8.20;;;;;;;;;;5057375;28;20036;-68
2022/10/18 06:33:25;;;;;;;37.47;8.43;;;;;;;;;;5055841;28;20051;-69
2022/10/18 06:35:58;;;;;;;36.70;8.27;;;;;;;;;;5055404;28;20035;-68
2022/10/18 06:38:24;;;;;;;34.88;8.65;;;;;;;;;;5057937;28;20067;-67
2022/10/18 06:40:50;;;;;;;29.63;7.78;;;;;;;;;;5053002;28;20028;-68
2022/10/18 06:43:17;;;;;;;25.88;7.53;;;;;;;;;;5050241;28;20557;-69
2022/10/18 06:45:43;;;;;;;29.23;8.10;;;;;;;;;;5057748;28;20036;-67
2022/10/18 06:48:09;;;;;;;37.60;10.13;;;;;;;;;;5057762;28;20752;-68
2022/10/18 06:50:35;;;;;;;36.45;9.90;;;;;;;;;;5059406;28;20024;-68
2022/10/18 06:53:03;;;;;;;33.75;7.97;;;;;;;;;;5055407;28;20044;-68
2022/10/18 06:55:30;;;;;;;28.92;8.55;;;;;;;;;;5060819;28;20024;-68
2022/10/18 06:57:56;;;;;;;34.88;9.25;;;;;;;;;;5053917;28;20062;-68
2022/10/18 07:00:22;;;;;;;34.67;8.73;;;;;;;;;;5062564;28;20074;-68
2022/10/18 07:02:48;;;;;;;30.02;7.57;;;;;;;;;;5058863;28;20402;-68
2022/10/18 07:05:14;;;;;;;29.27;8.13;;;;;;;;;;5061987;28;20035;-68
2022/10/18 07:07:40;;;;;;;33.45;8.00;;;;;;;;;;5058264;28;20442;-69
2022/10/18 07:10:07;;;;;;;30.85;7.82;;;;;;;;;;5057897;28;20027;-67
2022/10/18 07:12:33;;;;;;;30.60;7.60;;;;;;;;;;5055199;28;20027;-68
2022/10/18 07:14:59;;;;;;;35.08;8.90;;;;;;;;;;5060938;28;20043;-68
2022/10/18 07:17:25;;;;;;;27.38;7.90;;;;;;;;;;5056655;28;20074;-68
2022/10/18 07:19:52;;;;;;;32.45;7.90;;;;;;;;;;5059231;28;20513;-67
2022/10/18 07:22:18;;;;;;;30.80;7.55;;;;;;;;;;5065878;28;20207;-68
2022/10/18 07:24:44;;;;;;;34.97;7.55;;;;;;;;;;5055397;28;20065;-69
2022/10/18 07:27:10;;;;;;;34.33;8.57;;;;;;;;;;5061582;28;20201;-68
2022/10/18 07:29:37;;;;;;;28.20;7.15;;;;;;;;;;5063282;28;20436;-68
2022/10/18 07:32:04;;;;;;;32.17;7.22;;;;;;;;;;5064789;28;20035;-68
2022/10/18 07:34:30;;;;;;;28.27;6.85;;;;;;;;;;5058788;28;20373;-68
2022/10/18 07:36:56;;;;;;;23.92;6.55;;;;;;;;;;5063041;28;20028;-69
2022/10/18 07:39:22;;;;;;;21.58;6.53;;;;;;;;;;5068778;28;20046;-68
2022/10/18 07:41:48;;;;;;;30.00;7.00;;;;;;;;;;5060908;28;20031;-67
2022/10/18 07:44:14;;;;;;;32.95;8.40;;;;;;;;;;5068466;28;20085;-68
2022/10/18 07:46:41;;;;;;;31.17;7.57;;;;;;;;;;5062095;28;20052;-68
2022/10/18 07:49:07;;;;;;;29.30;8.80;;;;;;;;;;5063209;28;20043;-68
2022/10/18 07:51:34;;;;;;;26.25;7.55;;;;;;;;;;5059951;28;20032;-68
2022/10/18 07:54:01;;;;;;;29.00;7.28;;;;;;;;;;5065725;28;20027;-68
2022/10/18 07:56:27;;;;;;;35.30;8.07;;;;;;;;;;5064784;28;20039;-68
2022/10/18 07:58:54;;;;;;;36.17;8.25;;;;;;;;;;5058734;28;20024;-69
2022/10/18 08:01:21;;;;;;;46.85;10.43;;;;;;;;;;5065211;28;20028;-68
2022/10/18 08:03:47;;;;;;;31.75;8.68;;;;;;;;;;5059082;28;20106;-68
2022/10/18 08:06:15;;;;;;;36.60;9.73;;;;;;;;;;5068710;28;20019;-69
2022/10/18 08:08:41;;;;;;;25.15;6.93;;;;;;;;;;5057455;28;20032;-68
2022/10/18 08:11:09;;;;;;;34.42;8.52;;;;;;;;;;5058653;28;20028;-68
2022/10/18 08:13:35;;;;;;;33.08;8.55;;;;;;;;;;5056762;28;20120;-68
2022/10/18 08:16:02;;;;;;;26.75;7.75;;;;;;;;;;5060345;28;20106;-69
2022/10/18 08:18:28;;;;;;;30.25;8.15;;;;;;;;;;5062731;28;20078;-69
2022/10/18 08:20:54;;;;;;;33.63;9.13;;;;;;;;;;5062600;28;20027;-69
2022/10/18 08:23:20;;;;;;;40.75;9.77;;;;;;;;;;5065843;28;20418;-69
2022/10/18 08:25:47;;;;;;;29.90;8.18;;;;;;;;;;5058159;28;20565;-68
2022/10/18 08:28:13;;;;;;;29.65;8.32;;;;;;;;;;5057554;28;20249;-68
2022/10/18 08:30:39;;;;;;;23.73;7.00;;;;;;;;;;5057693;28;20024;-68
2022/10/18 08:33:05;;;;;;;25.42;7.40;;;;;;;;;;5062042;28;20032;-69
2022/10/18 08:35:31;;;;;;;30.05;8.95;;;;;;;;;;5055808;28;20035;-68
2022/10/18 08:37:58;;;;;;;27.50;8.02;;;;;;;;;;5052185;28;20675;-68
2022/10/18 08:40:26;;;;;;;29.92;7.60;;;;;;;;;;5060777;28;20077;-67
2022/10/18 08:42:56;;;;;;;29.55;9.13;;;;;;;;;;5054766;28;20038;-68
2022/10/18 08:45:23;;;;;;;28.70;8.50;;;;;;;;;;5059483;28;20101;-69
2022/10/18 08:47:52;;;;;;;30.67;9.40;;;;;;;;;;5055466;28;20024;-68
2022/10/18 08:50:21;;;;;;;28.27;8.52;;;;;;;;;;5057768;28;20145;-68
2022/10/18 08:52:59;;;;;;;30.13;8.75;;;;;;;;;;5057375;28;20286;-68
2022/10/18 08:55:35;;;;;;;27.10;8.32;;;;;;;;;;5061944;28;20404;-69
2022/10/18 08:58:02;;;;;;;24.23;7.20;;;;;;;;;;5062733;28;20035;-69
2022/10/18 09:00:33;;;;;;;27.67;8.48;;;;;;;;;;5064565;28;20031;-68
2022/10/18 09:03:17;;;;;;;35.40;9.05;;;;;;;;;;5064513;28;20059;-69
2022/10/18 09:06:01;;;;;;;33.22;8.38;;;;;;;;;;5060673;28;20020;-69
2022/10/18 09:08:37;;;;;;;34.90;7.60;;;;;;;;;;5061842;28;20066;-68
2022/10/18 09:11:29;;;;;;;28.42;7.57;;;;;;;;;;5062254;28;20070;-68
2022/10/18 09:13:58;;;;;;;24.63;6.47;;;;;;;;;;5030264;28;20567;-69
2022/10/18 09:16:31;;;;;;;22.20;6.15;;;;;;;;;;5062755;28;20046;-69
2022/10/18 09:19:29;;;;;;;23.45;6.80;;;;;;;;;;5062946;28;20144;-69
2022/10/18 09:22:01;;;;;;;32.72;7.53;;;;;;;;;;4952380;28;20132;-69
2022/10/18 09:24:56;;;;;;;25.52;7.72;;;;;;;;;;4975154;28;20436;-70
2022/10/18 09:27:28;;;;;;;29.52;7.60;;;;;;;;;;4963828;28;20049;-69
2022/10/18 09:30:03;;;;;;;30.50;7.78;;;;;;;;;;4979668;28;20072;-69
2022/10/18 09:32:35;;;;;;;27.13;7.00;;;;;;;;;;4976136;28;20473;-69
2022/10/18 09:35:13;;;;;;;28.00;7.95;;;;;;;;;;4976095;28;20057;-69
2022/10/18 09:37:39;;;;;;;29.95;7.65;;;;;;;;;;4969969;28;20281;-69
2022/10/18 09:40:12;;;;;;;30.02;7.22;;;;;;;;;;4978245;28;20152;-69
2022/10/18 09:42:41;;;;;;;33.45;8.30;;;;;;;;;;4973292;28;20894;-69
2022/10/18 09:45:13;;;;;;;26.55;7.20;;;;;;;;;;4977239;28;20539;-69
2022/10/18 09:47:44;;;;;;;30.75;7.35;;;;;;;;;;4971942;28;20427;-69
2022/10/18 09:50:29;;;;;;;35.78;7.50;;;;;;;;;;4978981;28;20037;-68
2022/10/18 09:53:02;;;;;;;27.65;6.72;;;;;;;;;;4973293;28;20121;-69
2022/10/18 09:55:31;;;;;;;27.27;7.20;;;;;;;;;;4978185;28;20033;-68
2022/10/18 09:58:00;;;;;;;22.40;6.78;;;;;;;;;;5040400;28;20156;-70
2022/10/18 10:00:29;;;;;;;22.35;6.78;;;;;;;;;;5064997;28;20069;-68
2022/10/18 10:02:55;;;;;;;26.38;8.20;;;;;;;;;;5056037;28;20024;-68
2022/10/18 10:05:21;;;;;;;26.63;7.55;;;;;;;;;;5061667;28;20243;-69
2022/10/18 10:07:48;;;;;;;33.50;8.30;;;;;;;;;;5061875;28;20271;-69
2022/10/18 10:10:24;;;;;;;26.80;8.18;;;;;;;;;;5068608;28;20035;-69
2022/10/18 10:13:07;;;;;;;24.85;7.65;;;;;;;;;;5062260;28;20035;-69
2022/10/18 10:15:35;;;;;;;27.55;7.22;;;;;;;;;;5059073;28;20580;-67
2022/10/18 10:18:18;;;;;;;23.25;6.60;;;;;;;;;;5062562;28;20031;-68
2022/10/18 10:20:46;;;;;;;25.65;7.32;;;;;;;;;;5059110;28;20089;-69
2022/10/18 10:23:27;;;;;;;34.38;9.00;;;;;;;;;;5054896;28;20549;-67
2022/10/18 10:25:58;;;;;;;26.13;7.63;;;;;;;;;;5059449;28;20114;-68
2022/10/18 10:28:27;;;;;;;29.85;7.57;;;;;;;;;;5060613;28;20028;-68
2022/10/18 10:30:53;;;;;;;32.20;7.95;;;;;;;;;;5058671;28;20364;-68
2022/10/18 10:33:35;;;;;;;30.70;8.43;;;;;;;;;;5063824;28;20090;-69
2022/10/18 10:36:03;;;;;;;25.35;7.43;;;;;;;;;;5060197;28;20415;-69
2022/10/18 10:38:30;;;;;;;24.08;7.25;;;;;;;;;;5063416;28;20037;-69
2022/10/18 10:40:57;;;;;;;23.38;6.85;;;;;;;;;;5060284;28;20042;-69
2022/10/18 10:43:33;;;;;;;29.08;7.65;;;;;;;;;;5066814;28;20483;-69
2022/10/18 10:46:06;;;;;;;31.60;8.35;;;;;;;;;;5072738;28;20040;-69
2022/10/18 10:48:33;;;;;;;22.45;7.03;;;;;;;;;;5056889;28;20407;-69
2022/10/18 10:51:07;;;;;;;27.83;6.88;;;;;;;;;;5066676;28;20066;-69
2022/10/18 10:53:35;;;;;;;27.42;6.28;;;;;;;;;;5062830;28;20294;-68
2022/10/18 10:56:03;;;;;;;21.30;6.05;;;;;;;;;;5064770;28;20127;-70
2022/10/18 10:58:33;;;;;;;22.23;5.97;;;;;;;;;;5065560;28;20422;-70
2022/10/18 11:01:16;;;;;;;29.42;7.47;;;;;;;;;;5064054;28;20036;-69
2022/10/18 11:03:45;;;;;;;29.33;6.88;;;;;;;;;;5050588;28;20085;-69
2022/10/18 11:06:26;;;;;;;22.35;5.82;;;;;;;;;;5068379;28;20055;-68
2022/10/18 11:08:53;;;;;;;22.25;5.80;;;;;;;;;;5057425;28;21121;-68
2022/10/18 11:11:26;;;;;;;26.33;6.32;;;;;;;;;;5072674;28;20070;-70
2022/10/18 11:14:13;;;;;;;23.30;6.43;;;;;;;;;;5054141;28;20606;-69
2022/10/18 11:16:48;;;;;;;25.73;6.22;;;;;;;;;;5062406;28;20074;-68
2022/10/18 11:19:29;;;;;;;21.55;6.10;;;;;;;;;;5065486;28;20109;-68
2022/10/18 11:21:56;;;;;;;29.48;6.60;;;;;;;;;;5053859;28;20491;-68
2022/10/18 11:24:23;;;;;;;25.77;6.10;;;;;;;;;;5053573;28;20035;-68
2022/10/18 11:26:56;;;;;;;24.02;6.22;;;;;;;;;;5053888;28;20491;-68
2022/10/18 11:29:31;;;;;;;28.40;7.40;;;;;;;;;;5064256;28;20458;-69
2022/10/18 11:32:24;;;;;;;19.45;6.10;;;;;;;;;;5062608;28;20028;-70
2022/10/18 11:34:58;;;;;;;33.25;6.95;;;;;;;;;;5051557;28;20268;-68
2022/10/18 11:37:43;;;;;;;23.80;6.35;;;;;;;;;;5066482;28;20036;-69
2022/10/18 11:40:38;;;;;;;21.13;6.18;;;;;;;;;;5060874;28;20085;-69
2022/10/18 11:43:10;;;;;;;24.20;5.82;;;;;;;;;;5050964;28;20040;-70
2022/10/18 11:46:15;;;;;;;24.52;6.82;;;;;;;;;;5061670;28;20065;-70
2022/10/18 11:49:00;;;;;;;22.23;6.07;;;;;;;;;;4974756;28;20037;-69
2022/10/18 11:51:26;;;;;;;;;;;;;;;;;;5004926;28;20132;-68
2022/10/18 11:54:08;;;;;;;25.30;6.40;;;;;;;;;;4980102;28;19924;-70
2022/10/18 11:57:13;;;;;;;28.23;6.57;;;;;;;;;;5003273;28;20558;-68
2022/10/18 11:59:41;;;;;;;21.98;6.18;;;;;;;;;;4947389;28;20065;-68
2022/10/18 12:02:10;;;;;;;19.80;5.63;;;;;;;;;;4929342;28;20032;-69
2022/10/18 12:04:40;;;;;;;23.25;6.38;;;;;;;;;;4941405;28;20126;-70
2022/10/18 12:07:07;;;;;;;26.95;6.63;;;;;;;;;;4944756;28;20397;-69
2022/10/18 12:09:38;;;;;;;28.40;6.97;;;;;;;;;;4938123;28;20196;-68
2022/10/18 12:12:16;;;;;;;23.23;5.95;;;;;;;;;;4928169;28;20046;-68
2022/10/18 12:14:46;;;;;;;25.25;6.20;;;;;;;;;;4938466;28;20125;-69
2022/10/18 12:17:38;;;;;;;20.40;6.05;;;;;;;;;;4945721;28;20092;-69
2022/10/18 12:20:06;;;;;;;22.30;6.03;;;;;;;;;;4943749;28;20050;-70
2022/10/18 12:22:40;;;;;;;26.40;6.30;;;;;;;;;;4969329;28;20322;-68
2022/10/18 12:25:12;;;;;;;30.05;6.97;;;;;;;;;;5005565;28;20392;-68
2022/10/18 12:27:45;;;;;;;22.60;6.05;;;;;;;;;;4999726;28;20028;-68
2022/10/18 12:30:23;;;;;;;25.08;6.68;;;;;;;;;;5034176;28;20070;-70
2022/10/18 12:32:50;;;;;;;26.70;6.05;;;;;;;;;;5062355;28;20035;-68
2022/10/18 12:35:17;;;;;;;24.63;6.82;;;;;;;;;;5068276;28;20079;-69
2022/10/18 12:37:54;;;;;;;26.00;6.32;;;;;;;;;;5063558;28;20376;-68
2022/10/18 12:40:25;;;;;;;25.75;6.50;;;;;;;;;;5066769;28;20462;-68
2022/10/18 12:42:52;;;;;;;24.95;6.80;;;;;;;;;;5059100;28;20024;-68
2022/10/18 12:45:24;;;;;;;29.83;7.03;;;;;;;;;;5062549;28;20422;-70
2022/10/18 12:47:50;;;;;;;26.10;6.68;;;;;;;;;;5056322;28;20580;-69
2022/10/18 12:50:36;;;;;;;25.35;6.68;;;;;;;;;;5062473;28;20040;-69
2022/10/18 12:53:03;;;;;;;27.48;7.30;;;;;;;;;;5067522;28;20123;-68
2022/10/18 12:55:30;;;;;;;23.52;6.60;;;;;;;;;;5067152;28;20020;-68
2022/10/18 12:57:56;;;;;;;25.40;6.68;;;;;;;;;;5071791;28;20554;-68
2022/10/18 13:00:31;;;;;;;29.38;7.13;;;;;;;;;;5069231;28;20085;-68
2022/10/18 13:03:10;;;;;;;28.08;7.32;;;;;;;;;;5066155;28;20113;-69
2022/10/18 13:05:49;;;;;;;24.55;6.90;;;;;;;;;;5066612;28;20020;-68
2022/10/18 13:08:33;;;;;;;22.23;6.25;;;;;;;;;;5073112;28;20028;-69
2022/10/18 13:11:09;;;;;;;22.87;6.93;;;;;;;;;;5064981;28;20021;-69
2022/10/18 13:13:35;;;;;;;20.33;5.40;;;;;;;;;;5069427;28;20096;-70
2022/10/18 13:16:21;;;;;;;25.92;6.43;;;;;;;;;;5067857;28;20032;-69
2022/10/18 13:18:47;;;;;;;28.48;6.97;;;;;;;;;;5065475;28;20379;-68
2022/10/18 13:21:36;;;;;;;19.77;5.97;;;;;;;;;;5067692;28;20032;-69
2022/10/18 13:24:11;;;;;;;19.67;6.53;;;;;;;;;;5011519;28;20043;-68
2022/10/18 13:26:52;;;;;;;25.40;7.25;;;;;;;;;;5017062;28;20519;-70
2022/10/18 13:29:18;;;;;;;21.33;6.38;;;;;;;;;;5023237;28;20064;-70
2022/10/18 13:31:48;;;;;;;27.45;6.53;;;;;;;;;;5016095;28;20078;-70
2022/10/18 13:34:23;;;;;;;22.67;6.35;;;;;;;;;;5017516;28;20127;-68
2022/10/18 13:36:57;;;;;;;22.20;5.78;;;;;;;;;;5014410;28;20122;-70
2022/10/18 13:39:23;;;;;;;30.02;6.93;;;;;;;;;;5018560;28;20103;-70
2022/10/18 13:41:49;;;;;;;21.67;6.28;;;;;;;;;;5000322;28;20041;-69
2022/10/18 13:44:24;;;;;;;24.23;6.13;;;;;;;;;;5020232;28;20033;-69
2022/10/18 13:46:50;;;;;;;22.80;6.43;;;;;;;;;;4999630;28;20025;-68
2022/10/18 13:49:35;;;;;;;25.55;6.43;;;;;;;;;;5001895;28;20041;-68
2022/10/18 13:52:01;;;;;;;;;;;;;;;;;;5003422;28;20302;-69
2022/10/18 13:54:36;;;;;;;22.05;6.22;;;;;;;;;;5019611;28;20154;-69
2022/10/18 13:57:08;;;;;;;21.95;5.97;;;;;;;;;;5018099;28;20659;-69
2022/10/18 13:59:34;;;;;;;22.58;5.93;;;;;;;;;;5016510;28;20367;-69
2022/10/18 14:02:04;;;;;;;23.13;6.22;;;;;;;;;;5059322;28;20056;-68
2022/10/18 14:04:30;;;;;;;20.55;5.72;;;;;;;;;;5064203;28;20111;-72
2022/10/18 14:06:59;;;;;;;22.65;6.55;;;;;;;;;;5061573;28;20032;-68
2022/10/18 14:09:26;;;;;;;26.88;6.43;;;;;;;;;;5068302;28;20152;-70
2022/10/18 14:12:01;;;;;;;23.48;5.78;;;;;;;;;;5062637;28;20166;-68
2022/10/18 14:14:42;;;;;;;23.70;6.00;;;;;;;;;;5068094;28;20110;-69
2022/10/18 14:17:28;;;;;;;21.98;5.72;;;;;;;;;;5069021;28;20036;-68
2022/10/18 14:19:56;;;;;;;30.15;7.00;;;;;;;;;;5068472;28;20032;-68
2022/10/18 14:22:34;;;;;;;28.40;6.97;;;;;;;;;;5067480;28;20046;-69
2022/10/18 14:25:00;;;;;;;19.77;5.85;;;;;;;;;;5063506;28;20051;-69
2022/10/18 14:27:27;;;;;;;28.05;6.53;;;;;;;;;;5066616;28;20158;-69
2022/10/18 14:30:14;;;;;;;20.95;6.13;;;;;;;;;;5063690;28;20024;-69
2022/10/18 14:32:47;;;;;;;19.65;5.72;;;;;;;;;;5061113;28;20039;-69
2022/10/18 14:35:18;;;;;;;22.55;5.93;;;;;;;;;;5061903;28;20052;-69
2022/10/18 14:37:46;;;;;;;24.08;5.75;;;;;;;;;;5057483;28;20079;-70
2022/10/18 14:40:29;;;;;;;21.27;5.78;;;;;;;;;;5064332;28;20041;-69
2022/10/18 14:42:55;;;;;;;23.88;5.93;;;;;;;;;;5057222;28;20259;-68
2022/10/18 14:45:23;;;;;;;22.00;5.35;;;;;;;;;;5065979;28;20378;-70
2022/10/18 14:47:49;;;;;;;27.25;5.85;;;;;;;;;;5063256;28;20032;-69
2022/10/18 14:50:23;;;;;;;24.15;5.70;;;;;;;;;;5071138;28;20432;-69
2022/10/18 14:52:49;;;;;;;23.50;5.75;;;;;;;;;;5065463;28;20505;-68
2022/10/18 14:55:22;;;;;;;26.77;5.95;;;;;;;;;;5068677;28;20310;-69
2022/10/18 14:57:48;;;;;;;21.17;5.03;;;;;;;;;;5069574;28;20061;-68